createdAt,value
2023-02-24T00:02:15.438Z,99374.45
2023-02-24T00:07:20.440Z,99367.05
2023-02-24T00:12:25.082Z,99358.58
2023-02-24T00:17:30.586Z,99349.44
2023-02-24T00:22:33.514Z,99340.01
2023-02-24T00:27:36.273Z,99332.81
2023-02-24T00:32:39.215Z,99324.88
2023-02-24T00:37:42.069Z,99311.02
2023-02-24T00:42:44.793Z,99303.95
2023-02-24T00:47:47.558Z,99297.88
2023-02-24T00:52:50.290Z,99289.59
2023-02-24T00:57:53.111Z,99277.80
2023-02-24T01:02:59.672Z,99270.72
2023-02-24T01:08:03.562Z,99258.80
2023-02-24T01:13:06.437Z,99248.05
2023-02-24T01:18:10.947Z,99235.35
2023-02-24T01:23:13.646Z,99230.02
2023-02-24T01:28:17.870Z,99220.73
2023-02-24T01:33:22.104Z,99219.65
2023-02-24T01:38:25.421Z,99209.89
2023-02-24T01:43:28.155Z,99203.51
2023-02-24T01:48:32.424Z,99197.98
2023-02-24T01:53:35.894Z,99196.17
2023-02-24T01:58:38.645Z,99188.09
2023-02-24T02:03:42.838Z,99182.48
2023-02-24T02:08:46.377Z,99176.45
2023-02-24T02:13:52.391Z,99177.48
2023-02-24T02:19:09.765Z,99177.91
2023-02-24T02:24:31.407Z,99170.86
2023-02-24T02:29:43.230Z,99167.52
2023-02-24T02:34:51.791Z,99166.63
2023-02-24T02:40:32.129Z,99160.20
2023-02-24T02:45:49.085Z,99158.38
2023-02-24T02:50:56.402Z,99154.02
2023-02-24T02:56:07.196Z,99152.85
2023-02-24T03:01:16.662Z,99141.91
2023-02-24T03:06:24.964Z,99133.45
2023-02-24T03:11:32.610Z,99124.30
2023-02-24T03:16:35.664Z,99118.27
2023-02-24T03:21:47.950Z,99110.21
2023-02-24T03:26:59.230Z,99109.02
2023-02-24T03:32:25.636Z,99106.70
2023-02-24T03:37:30.179Z,99102.55
2023-02-24T03:42:36.100Z,99100.61
2023-02-24T03:47:41.037Z,99093.14
2023-02-24T03:53:02.602Z,99086.25
2023-02-24T03:58:32.525Z,99085.17
2023-02-24T04:03:41.845Z,99074.41
2023-02-24T04:09:10.760Z,99069.44
2023-02-24T04:14:35.215Z,99066.86
2023-02-24T04:19:42.943Z,99055.73
2023-02-24T04:24:50.224Z,99053.48
2023-02-24T04:29:56.575Z,99047.39
2023-02-24T04:35:09.556Z,99043.98
2023-02-24T04:40:17.067Z,99038.80
2023-02-24T04:45:23.514Z,99035.41
2023-02-24T04:50:28.890Z,99029.30
2023-02-24T04:55:34.554Z,99023.95
2023-02-24T05:00:40.266Z,99022.25
2023-02-24T05:05:57.007Z,99019.69
2023-02-24T05:11:05.638Z,99012.66
2023-02-24T05:16:09.517Z,99014.40
2023-02-24T05:21:34.289Z,99008.59
2023-02-24T05:26:41.968Z,99003.80
2023-02-24T05:31:45.499Z,99006.35
2023-02-24T05:36:49.234Z,99006.12
2023-02-24T05:41:55.029Z,99000.91
2023-02-24T05:46:59.309Z,99000.35
2023-02-24T05:52:10.222Z,98992.28
2023-02-24T05:57:17.223Z,98996.55
2023-02-24T06:02:27.911Z,98990.60
2023-02-24T06:07:42.554Z,98986.06
2023-02-24T06:12:45.599Z,98982.63
2023-02-24T06:17:50.629Z,98977.34
2023-02-24T06:22:57.464Z,98974.48
2023-02-24T06:28:01.920Z,98971.60
2023-02-24T06:33:09.115Z,98965.56
2023-02-24T06:38:11.910Z,98966.13
2023-02-24T06:43:14.712Z,98960.80
2023-02-24T06:48:19.563Z,98963.46
2023-02-24T06:53:24.009Z,98967.13
2023-02-24T06:58:26.792Z,98964.36
2023-02-24T07:04:04.089Z,98957.56
2023-02-24T07:09:13.256Z,98954.11
2023-02-24T07:14:16.140Z,98956.59
2023-02-24T07:19:20.496Z,98956.39
2023-02-24T07:24:33.745Z,98954.62
2023-02-24T07:29:39.567Z,98951.05
2023-02-24T07:34:46.036Z,98949.07
2023-02-24T07:39:49.241Z,98947.87
2023-02-24T07:44:52.485Z,98943.97
2023-02-24T07:49:55.613Z,98941.17
2023-02-24T07:54:58.705Z,98938.17
2023-02-24T08:00:19.860Z,98932.96
2023-02-24T08:05:27.224Z,98926.51
2023-02-24T08:10:37.003Z,98917.84
2023-02-24T08:15:46.585Z,98905.64
2023-02-24T08:20:52.523Z,98908.35
2023-02-24T08:25:55.499Z,98904.08
2023-02-24T08:30:59.130Z,98906.30
2023-02-24T08:36:02.793Z,98897.94
2023-02-24T08:41:13.701Z,98890.13
2023-02-24T08:46:26.711Z,98884.73
2023-02-24T08:51:35.290Z,98886.46
2023-02-24T08:56:43.814Z,98875.45
2023-02-24T09:02:04.137Z,98871.16
2023-02-24T09:07:15.507Z,98863.44
2023-02-24T09:12:28.997Z,98854.42
2023-02-24T09:17:41.260Z,98847.66
2023-02-24T09:23:07.448Z,98843.38
2023-02-24T09:28:29.281Z,98850.14
2023-02-24T09:33:42.994Z,98840.19
2023-02-24T09:39:00.246Z,98834.64
2023-02-24T09:44:18.427Z,98828.10
2023-02-24T09:49:39.882Z,98825.73
2023-02-24T09:55:05.732Z,98817.13
2023-02-24T10:00:25.960Z,98809.45
2023-02-24T10:05:38.827Z,98803.27
2023-02-24T10:11:00.859Z,98799.25
2023-02-24T10:16:07.507Z,98794.52
2023-02-24T10:21:20.800Z,98792.84
2023-02-24T10:26:32.989Z,98786.48
2023-02-24T10:31:48.039Z,98782.85
2023-02-24T10:36:51.425Z,98777.98
2023-02-24T10:42:15.629Z,98772.12
2023-02-24T10:47:31.526Z,98764.86
2023-02-24T10:53:01.558Z,98747.69
2023-02-24T10:58:06.526Z,98740.95
2023-02-24T11:03:22.054Z,98737.08
2023-02-24T11:08:44.274Z,98731.84
2023-02-24T11:14:09.349Z,98721.32
2023-02-24T11:19:12.309Z,98716.66
2023-02-24T11:24:19.142Z,98713.88
2023-02-24T11:29:36.866Z,98708.64
2023-02-24T11:34:39.575Z,98701.33
2023-02-24T11:39:53.741Z,98701.42
2023-02-24T11:45:00.070Z,98693.57
2023-02-24T11:50:14.425Z,98690.08
2023-02-24T11:55:40.446Z,98692.27
2023-02-24T12:00:57.770Z,98690.27
2023-02-24T12:06:14.079Z,98683.54
2023-02-24T12:11:44.196Z,98676.77
2023-02-24T12:16:53.446Z,98667.56
2023-02-24T12:22:05.633Z,98658.88
2023-02-24T12:27:26.083Z,98660.45
2023-02-24T12:32:47.096Z,98659.13
2023-02-24T12:38:18.916Z,98661.27
2023-02-24T12:44:00.871Z,98647.00
2023-02-24T12:49:21.778Z,98641.34
2023-02-24T12:54:33.713Z,98644.30
2023-02-24T12:59:42.157Z,98643.77
2023-02-24T13:05:23.939Z,98638.30
2023-02-24T13:10:57.455Z,98629.73
2023-02-24T13:16:00.342Z,98627.51
2023-02-24T13:21:14.004Z,98621.42
2023-02-24T13:26:25.922Z,98619.81
2023-02-24T13:31:50.859Z,98614.77
2023-02-24T13:36:53.810Z,98608.23
2023-02-24T13:42:21.470Z,98601.45
2023-02-24T13:47:40.946Z,98592.36
2023-02-24T13:53:06.789Z,98582.45
2023-02-24T13:58:30.833Z,98593.00
2023-02-24T14:03:36.399Z,98593.41
2023-02-24T14:08:42.439Z,98596.46
2023-02-24T14:13:51.042Z,98598.23
2023-02-24T14:19:01.824Z,98590.98
2023-02-24T14:24:11.786Z,98579.84
2023-02-24T14:29:32.777Z,98578.33
2023-02-24T14:34:36.141Z,98574.20
2023-02-24T14:39:38.867Z,98566.55
2023-02-24T14:44:45.610Z,98561.70
2023-02-24T14:49:56.331Z,98558.23
2023-02-24T14:55:08.023Z,98547.56
2023-02-24T15:00:24.254Z,98540.83
2023-02-24T15:05:29.685Z,98539.91
2023-02-24T15:10:33.164Z,98528.27
2023-02-24T15:15:39.651Z,98528.60
2023-02-24T15:20:43.541Z,98521.45
2023-02-24T15:25:46.685Z,98512.32
2023-02-24T15:31:03.874Z,98505.36
2023-02-24T15:36:12.382Z,98505.31
2023-02-24T15:41:15.468Z,98497.17
2023-02-24T15:46:24.660Z,98492.27
2023-02-24T15:51:34.266Z,98486.29
2023-02-24T15:56:37.027Z,98479.70
2023-02-24T16:01:39.757Z,98476.63
2023-02-24T16:06:54.034Z,98474.01
2023-02-24T16:11:56.836Z,98468.58
2023-02-24T16:17:04.219Z,98469.13
2023-02-24T16:22:08.880Z,98462.04
2023-02-24T16:27:20.709Z,98453.52
2023-02-24T16:32:25.861Z,98451.30
2023-02-24T16:37:30.479Z,98452.22
2023-02-24T16:42:33.704Z,98448.89
2023-02-24T16:47:37.733Z,98448.83
2023-02-24T16:52:40.467Z,98446.73
2023-02-24T16:57:43.255Z,98442.90
2023-02-24T17:02:46.049Z,98425.15
2023-02-24T17:07:50.527Z,98415.34
2023-02-24T17:12:53.351Z,98414.38
2023-02-24T17:17:56.196Z,98413.40
2023-02-24T17:22:58.893Z,98413.45
2023-02-24T17:28:01.777Z,98407.36
2023-02-24T17:33:04.458Z,98404.71
2023-02-24T17:38:19.751Z,98399.86
2023-02-24T17:43:22.525Z,98390.14
2023-02-24T17:48:25.771Z,98384.63
2023-02-24T17:53:31.701Z,98381.91
2023-02-24T17:58:36.202Z,98377.63
2023-02-24T18:03:39.241Z,98382.02
2023-02-24T18:08:42.008Z,98367.73
2023-02-24T18:13:45.747Z,98356.34
2023-02-24T18:18:48.604Z,98351.89
2023-02-24T18:23:52.261Z,98348.80
2023-02-24T18:28:55.152Z,98341.41
2023-02-24T18:33:59.118Z,98334.08
2023-02-24T18:39:01.904Z,98331.91
2023-02-24T18:44:04.899Z,98327.33
2023-02-24T18:49:09.016Z,98322.04
2023-02-24T18:54:12.118Z,98316.02
2023-02-24T18:59:14.847Z,98308.54
2023-02-24T19:04:17.757Z,98305.64
2023-02-24T19:09:22.006Z,98296.09
2023-02-24T19:14:24.825Z,98293.55
2023-02-24T19:19:27.788Z,98291.54
2023-02-24T19:24:30.587Z,98280.23
2023-02-24T19:29:33.300Z,98276.19
2023-02-24T19:34:37.022Z,98271.75
2023-02-24T19:39:39.913Z,98265.36
2023-02-24T19:44:42.636Z,98263.77
2023-02-24T19:49:45.748Z,98254.79
2023-02-24T19:54:48.534Z,98247.04
2023-02-24T19:59:51.981Z,98243.11
2023-02-24T20:04:55.254Z,98241.11
2023-02-24T20:09:58.122Z,98234.59
2023-02-24T20:15:00.924Z,98223.03
2023-02-24T20:20:04.203Z,98220.60
2023-02-24T20:25:07.793Z,98218.17
2023-02-24T20:30:11.314Z,98209.52
2023-02-24T20:35:14.092Z,98206.65
2023-02-24T20:40:16.941Z,98198.25
2023-02-24T20:45:19.704Z,98191.35
2023-02-24T20:50:22.517Z,98186.55
2023-02-24T20:55:25.320Z,98178.54
2023-02-24T21:00:28.429Z,98174.30
2023-02-24T21:05:31.397Z,98169.35
2023-02-24T21:10:34.143Z,98167.19
2023-02-24T21:15:37.001Z,98161.00
2023-02-24T21:20:39.723Z,98157.09
2023-02-24T21:25:42.502Z,98145.34
2023-02-24T21:30:45.286Z,98140.61
2023-02-24T21:35:59.070Z,98132.52
2023-02-24T21:41:10.119Z,98121.47
2023-02-24T21:46:34.888Z,98120.31
2023-02-24T21:51:39.050Z,98112.48
2023-02-24T21:56:42.050Z,98102.13
2023-02-24T22:01:45.670Z,98097.85
2023-02-24T22:06:48.577Z,98087.91
2023-02-24T22:11:51.369Z,98089.71
2023-02-24T22:16:54.090Z,98074.40
2023-02-24T22:21:59.311Z,98069.11
2023-02-24T22:27:02.497Z,98065.59
2023-02-24T22:32:06.255Z,98060.26
2023-02-24T22:37:09.018Z,98060.00
2023-02-24T22:42:11.946Z,98054.83
2023-02-24T22:47:14.669Z,98048.42
2023-02-24T22:52:18.914Z,98044.84
2023-02-24T22:57:21.621Z,98037.92
2023-02-24T23:02:24.563Z,98031.61
2023-02-24T23:07:27.283Z,98030.32
2023-02-24T23:12:30.023Z,98023.77
2023-02-24T23:17:32.739Z,98023.31
2023-02-24T23:22:35.681Z,98017.23
2023-02-24T23:27:39.461Z,98011.80
2023-02-24T23:32:44.559Z,98002.91
2023-02-24T23:37:48.477Z,98000.64
2023-02-24T23:42:53.342Z,97992.80
2023-02-24T23:47:57.746Z,97991.73
2023-02-24T23:53:01.776Z,97985.71
2023-02-24T23:58:05.051Z,97988.18
